createdAt,value
2023-02-26T00:01:43.356Z,2.93
2023-02-26T00:04:12.096Z,6.63
2023-02-26T00:06:53.021Z,1.93
2023-02-26T00:09:23.991Z,6.10
2023-02-26T00:11:52.336Z,4.60
2023-02-26T00:14:21.422Z,6.90
2023-02-26T00:16:56.716Z,4.87
2023-02-26T00:19:25.442Z,2.40
2023-02-26T00:21:54.035Z,7.17
2023-02-26T00:24:23.419Z,3.77
2023-02-26T00:26:51.485Z,2.97
2023-02-26T00:29:20.252Z,5.50
2023-02-26T00:31:48.921Z,6.97
2023-02-26T00:34:17.533Z,4.43
2023-02-26T00:36:50.765Z,5.00
2023-02-26T00:39:38.311Z,4.10
2023-02-26T00:42:07.016Z,7.13
2023-02-26T00:44:35.741Z,2.57
2023-02-26T00:47:14.768Z,3.13
2023-02-26T00:49:57.324Z,3.63
2023-02-26T00:52:37.363Z,5.13
2023-02-26T00:55:07.357Z,6.37
2023-02-26T00:57:35.613Z,6.07
2023-02-26T01:00:06.023Z,6.13
2023-02-26T01:02:35.205Z,4.27
2023-02-26T01:05:04.747Z,3.07
2023-02-26T01:07:41.402Z,3.53
2023-02-26T01:10:13.133Z,6.77
2023-02-26T01:12:42.092Z,2.33
2023-02-26T01:15:11.238Z,4.20
2023-02-26T01:17:45.561Z,3.03
2023-02-26T01:20:20.225Z,2.10
2023-02-26T01:22:55.091Z,4.70
2023-02-26T01:25:27.945Z,2.30
2023-02-26T01:27:57.924Z,2.00
2023-02-26T01:30:27.474Z,2.93
2023-02-26T01:33:00.401Z,4.37
2023-02-26T01:35:42.919Z,3.87
2023-02-26T01:38:36.355Z,3.03
2023-02-26T01:41:29.861Z,2.80
2023-02-26T01:44:05.857Z,3.47
2023-02-26T01:46:40.330Z,3.63
2023-02-26T01:49:15.309Z,2.47
2023-02-26T01:51:47.088Z,4.30
2023-02-26T01:54:16.118Z,4.00
2023-02-26T01:56:48.309Z,3.10
2023-02-26T01:59:24.266Z,5.03
2023-02-26T02:01:54.639Z,2.77
2023-02-26T02:04:25.192Z,3.53
2023-02-26T02:06:54.718Z,3.97
2023-02-26T02:09:22.865Z,2.90
2023-02-26T02:12:06.381Z,4.20
2023-02-26T02:14:47.955Z,1.80
2023-02-26T02:17:24.680Z,2.17
2023-02-26T02:20:29.097Z,3.77
2023-02-26T02:23:12.962Z,2.37
2023-02-26T02:26:14.755Z,2.97
2023-02-26T02:29:02.409Z,7.40
2023-02-26T02:31:36.950Z,17.47
2023-02-26T02:34:13.094Z,17.47
2023-02-26T02:36:46.192Z,14.27
2023-02-26T02:39:18.446Z,5.17
2023-02-26T02:41:51.025Z,7.57
2023-02-26T02:44:21.463Z,3.03
2023-02-26T02:46:53.707Z,4.23
2023-02-26T02:49:27.443Z,2.60
2023-02-26T02:52:00.252Z,3.33
2023-02-26T02:54:34.332Z,1.80
2023-02-26T02:57:06.834Z,1.60
2023-02-26T02:59:38.566Z,2.10
2023-02-26T03:02:12.772Z,2.53
2023-02-26T03:04:42.608Z,2.10
2023-02-26T03:07:11.037Z,3.83
2023-02-26T03:09:39.456Z,2.73
2023-02-26T03:12:07.684Z,3.87
2023-02-26T03:14:35.775Z,5.77
2023-02-26T03:17:26.292Z,1.90
2023-02-26T03:20:06.479Z,2.80
2023-02-26T03:22:40.915Z,1.70
2023-02-26T03:25:13.258Z,2.50
2023-02-26T03:27:46.479Z,3.40
2023-02-26T03:30:20.274Z,2.03
2023-02-26T03:32:57.963Z,1.63
2023-02-26T03:35:32.533Z,2.07
2023-02-26T03:38:05.226Z,2.37
2023-02-26T03:40:38.567Z,1.70
2023-02-26T03:43:10.890Z,1.77
2023-02-26T03:45:40.829Z,1.80
2023-02-26T03:48:14.542Z,2.07
2023-02-26T03:50:45.855Z,1.90
2023-02-26T03:53:18.631Z,3.03
2023-02-26T03:55:51.593Z,2.13
2023-02-26T03:58:20.125Z,2.00
2023-02-26T04:01:04.521Z,2.20
2023-02-26T04:03:38.026Z,1.73
2023-02-26T04:06:06.985Z,1.70
2023-02-26T04:08:35.419Z,4.37
2023-02-26T04:11:09.076Z,1.83
2023-02-26T04:13:37.281Z,2.73
2023-02-26T04:16:05.679Z,2.47
2023-02-26T04:18:35.056Z,1.80
2023-02-26T04:21:03.258Z,1.80
2023-02-26T04:23:31.541Z,2.57
2023-02-26T04:25:59.581Z,4.73
2023-02-26T04:28:27.776Z,5.50
2023-02-26T04:30:55.876Z,3.23
2023-02-26T04:33:24.399Z,2.73
2023-02-26T04:35:54.081Z,2.67
2023-02-26T04:38:22.136Z,1.83
2023-02-26T04:40:50.995Z,3.27
2023-02-26T04:43:20.016Z,3.07
2023-02-26T04:45:48.892Z,2.60
2023-02-26T04:48:17.937Z,2.50
2023-02-26T04:50:46.591Z,2.00
2023-02-26T04:53:15.998Z,4.23
2023-02-26T04:55:44.110Z,1.83
2023-02-26T04:58:12.281Z,1.80
2023-02-26T05:00:40.312Z,2.70
2023-02-26T05:03:09.970Z,1.87
2023-02-26T05:05:38.156Z,1.90
2023-02-26T05:08:06.270Z,3.40
2023-02-26T05:10:35.797Z,3.23
2023-02-26T05:13:04.039Z,2.33
2023-02-26T05:15:32.629Z,2.77
2023-02-26T05:18:00.658Z,2.30
2023-02-26T05:20:29.157Z,1.70
2023-02-26T05:22:57.183Z,1.97
2023-02-26T05:25:25.527Z,1.43
2023-02-26T05:27:55.812Z,1.60
2023-02-26T05:30:23.872Z,2.17
2023-02-26T05:32:52.126Z,2.83
2023-02-26T05:35:20.284Z,1.60
2023-02-26T05:37:48.755Z,2.13
2023-02-26T05:40:16.901Z,1.60
2023-02-26T05:42:45.112Z,1.50
2023-02-26T05:45:14.599Z,2.40
2023-02-26T05:47:42.576Z,2.00
2023-02-26T05:50:12.792Z,2.13
2023-02-26T05:52:40.813Z,1.43
2023-02-26T05:55:10.659Z,1.60
2023-02-26T05:57:38.685Z,1.73
2023-02-26T06:00:08.879Z,1.83
2023-02-26T06:02:38.359Z,2.70
2023-02-26T06:05:07.605Z,2.10
2023-02-26T06:07:35.693Z,2.53
2023-02-26T06:10:04.059Z,2.10
2023-02-26T06:12:32.172Z,3.70
2023-02-26T06:15:00.119Z,1.80
2023-02-26T06:17:28.295Z,2.97
2023-02-26T06:19:57.746Z,2.07
2023-02-26T06:22:25.787Z,2.07
2023-02-26T06:24:55.149Z,2.73
2023-02-26T06:27:23.624Z,1.80
2023-02-26T06:29:51.825Z,1.77
2023-02-26T06:32:20.002Z,1.80
2023-02-26T06:34:48.111Z,3.43
2023-02-26T06:37:17.566Z,1.80
2023-02-26T06:39:46.123Z,1.83
2023-02-26T06:42:14.322Z,2.67
2023-02-26T06:44:42.339Z,1.80
2023-02-26T06:47:10.374Z,1.80
2023-02-26T06:49:38.379Z,3.27
2023-02-26T06:52:06.702Z,2.70
2023-02-26T06:54:36.431Z,2.33
2023-02-26T06:57:04.842Z,1.90
2023-02-26T06:59:33.072Z,3.50
2023-02-26T07:02:01.215Z,1.97
2023-02-26T07:04:29.259Z,4.00
2023-02-26T07:06:57.268Z,3.40
2023-02-26T07:09:25.331Z,5.30
2023-02-26T07:11:54.735Z,2.33
2023-02-26T07:14:22.917Z,3.70
2023-02-26T07:16:51.080Z,1.90
2023-02-26T07:19:19.160Z,2.43
2023-02-26T07:21:47.366Z,3.77
2023-02-26T07:24:15.432Z,2.13
2023-02-26T07:26:43.661Z,2.20
2023-02-26T07:29:13.063Z,2.37
2023-02-26T07:31:41.813Z,4.37
2023-02-26T07:34:09.980Z,2.30
2023-02-26T07:36:38.059Z,2.17
2023-02-26T07:39:06.360Z,2.13
2023-02-26T07:41:34.372Z,4.73
2023-02-26T07:44:02.774Z,3.13
2023-02-26T07:46:32.423Z,2.50
2023-02-26T07:49:00.519Z,3.57
2023-02-26T07:51:30.076Z,2.97
2023-02-26T07:53:59.606Z,5.47
2023-02-26T07:56:28.162Z,3.70
2023-02-26T07:58:56.811Z,5.83
2023-02-26T08:01:24.889Z,8.63
2023-02-26T08:03:54.399Z,4.03
2023-02-26T08:06:22.443Z,5.73
2023-02-26T08:08:50.573Z,5.93
2023-02-26T08:11:18.783Z,6.27
2023-02-26T08:13:46.821Z,5.47
2023-02-26T08:16:14.990Z,6.40
2023-02-26T08:18:43.252Z,4.93
2023-02-26T08:21:12.912Z,3.57
2023-02-26T08:23:41.247Z,7.40
2023-02-26T08:26:12.481Z,7.83
2023-02-26T08:28:40.776Z,4.30
2023-02-26T08:31:09.027Z,7.30
2023-02-26T08:33:37.315Z,3.53
2023-02-26T08:36:05.858Z,5.00
2023-02-26T08:38:35.593Z,3.83
2023-02-26T08:41:03.793Z,2.70
2023-02-26T08:43:31.829Z,4.17
2023-02-26T08:46:00.615Z,2.20
2023-02-26T08:48:28.797Z,6.97
2023-02-26T08:50:56.816Z,4.37
2023-02-26T08:53:25.389Z,3.57
2023-02-26T08:55:55.336Z,3.83
2023-02-26T08:58:23.737Z,4.60
2023-02-26T09:00:51.766Z,3.27
2023-02-26T09:03:20.055Z,2.67
2023-02-26T09:05:48.136Z,3.23
2023-02-26T09:08:16.490Z,1.83
2023-02-26T09:10:44.853Z,3.17
2023-02-26T09:13:14.591Z,4.37
2023-02-26T09:15:42.715Z,2.97
2023-02-26T09:18:15.651Z,2.90
2023-02-26T09:20:44.057Z,4.23
2023-02-26T09:23:12.432Z,3.77
2023-02-26T09:25:40.801Z,2.00
2023-02-26T09:28:08.868Z,2.53
2023-02-26T09:30:38.275Z,4.03
2023-02-26T09:33:06.574Z,4.77
2023-02-26T09:35:34.647Z,3.03
2023-02-26T09:38:03.897Z,3.53
2023-02-26T09:40:41.937Z,4.10
2023-02-26T09:43:27.903Z,4.20
2023-02-26T09:46:00.236Z,5.00
2023-02-26T09:48:31.280Z,2.40
2023-02-26T09:51:00.502Z,6.60
2023-02-26T09:53:32.227Z,2.83
2023-02-26T09:56:05.747Z,2.87
2023-02-26T09:58:36.100Z,1.90
2023-02-26T10:01:19.282Z,2.80
2023-02-26T10:03:59.487Z,4.50
2023-02-26T10:06:30.567Z,1.87
2023-02-26T10:09:13.817Z,2.87
2023-02-26T10:11:49.745Z,4.93
2023-02-26T10:14:23.679Z,4.37
2023-02-26T10:16:58.154Z,4.10
2023-02-26T10:19:31.952Z,2.37
2023-02-26T10:22:07.098Z,2.30
2023-02-26T10:24:43.336Z,4.23
2023-02-26T10:27:16.435Z,5.43
2023-02-26T10:29:50.980Z,2.80
2023-02-26T10:32:29.781Z,4.07
2023-02-26T10:34:59.935Z,6.07
2023-02-26T10:37:40.271Z,4.43
2023-02-26T10:40:15.061Z,2.70
2023-02-26T10:42:45.172Z,5.17
2023-02-26T10:45:28.385Z,2.30
2023-02-26T10:48:10.479Z,2.63
2023-02-26T10:50:50.077Z,2.93
2023-02-26T10:53:18.278Z,3.60
2023-02-26T10:55:51.227Z,3.80
2023-02-26T10:58:21.973Z,4.03
2023-02-26T11:00:53.835Z,3.13
2023-02-26T11:03:33.854Z,2.53
2023-02-26T11:06:03.860Z,2.83
2023-02-26T11:08:35.022Z,3.57
2023-02-26T11:11:05.525Z,2.63
2023-02-26T11:13:36.248Z,4.37
2023-02-26T11:16:07.702Z,3.13
2023-02-26T11:18:42.288Z,3.33
2023-02-26T11:21:17.721Z,1.93
2023-02-26T11:23:47.755Z,2.93
2023-02-26T11:26:18.874Z,2.20
2023-02-26T11:28:49.267Z,2.87
2023-02-26T11:31:19.946Z,2.73
2023-02-26T11:33:51.537Z,2.63
2023-02-26T11:36:21.556Z,3.53
2023-02-26T11:38:58.082Z,1.80
2023-02-26T11:41:28.913Z,1.70
2023-02-26T11:44:02.206Z,1.50
2023-02-26T11:46:30.708Z,1.37
2023-02-26T11:49:02.615Z,1.67
2023-02-26T11:51:31.415Z,2.70
2023-02-26T11:54:02.229Z,3.53
2023-02-26T11:56:34.337Z,4.20
2023-02-26T11:59:09.251Z,1.90
2023-02-26T12:01:37.938Z,1.60
2023-02-26T12:04:11.761Z,1.47
2023-02-26T12:06:39.905Z,4.90
2023-02-26T12:09:13.583Z,3.80
2023-02-26T12:12:15.145Z,1.77
2023-02-26T12:14:55.271Z,2.83
2023-02-26T12:17:43.408Z,2.63
2023-02-26T12:20:21.404Z,4.10
2023-02-26T12:22:56.084Z,3.57
2023-02-26T12:25:41.070Z,3.43
2023-02-26T12:28:33.078Z,3.27
2023-02-26T12:31:16.748Z,3.17
2023-02-26T12:33:56.389Z,3.20
2023-02-26T12:36:48.352Z,2.27
2023-02-26T12:39:31.805Z,3.13
2023-02-26T12:42:10.475Z,5.33
2023-02-26T12:45:07.289Z,5.67
2023-02-26T12:47:45.103Z,7.60
2023-02-26T12:50:28.417Z,5.37
2023-02-26T12:53:15.817Z,9.00
2023-02-26T12:55:56.915Z,9.83
2023-02-26T12:58:48.795Z,6.57
2023-02-26T13:01:34.122Z,5.97
2023-02-26T13:04:32.428Z,5.53
2023-02-26T13:07:20.730Z,5.00
2023-02-26T13:10:00.414Z,10.00
2023-02-26T13:12:37.739Z,5.90
2023-02-26T13:15:22.443Z,5.03
2023-02-26T13:17:58.655Z,4.93
2023-02-26T13:20:28.136Z,8.40
2023-02-26T13:23:00.642Z,5.77
2023-02-26T13:25:37.857Z,6.30
2023-02-26T13:28:21.746Z,6.20
2023-02-26T13:30:53.863Z,10.53
2023-02-26T13:33:25.895Z,6.27
2023-02-26T13:35:55.477Z,3.80
2023-02-26T13:38:29.809Z,3.80
2023-02-26T13:41:08.856Z,4.87
2023-02-26T13:43:49.024Z,6.33
2023-02-26T13:46:28.093Z,4.43
2023-02-26T13:49:04.758Z,8.47
2023-02-26T13:51:37.799Z,4.40
2023-02-26T13:54:10.448Z,5.37
2023-02-26T13:57:04.122Z,5.03
2023-02-26T13:59:38.829Z,4.83
2023-02-26T14:02:38.921Z,4.47
2023-02-26T14:05:29.713Z,4.83
2023-02-26T14:08:22.470Z,4.30
2023-02-26T14:11:00.527Z,3.00
2023-02-26T14:13:40.838Z,8.57
2023-02-26T14:16:14.520Z,6.70
2023-02-26T14:18:50.294Z,5.53
2023-02-26T14:21:38.558Z,5.07
2023-02-26T14:24:14.467Z,10.80
2023-02-26T14:26:46.755Z,6.03
2023-02-26T14:29:21.638Z,4.80
2023-02-26T14:32:07.178Z,7.83
2023-02-26T14:34:38.569Z,28.50
2023-02-26T14:37:09.832Z,9.40
2023-02-26T14:39:42.616Z,17.93
2023-02-26T14:42:17.522Z,12.63
2023-02-26T14:44:51.448Z,26.27
2023-02-26T14:47:19.714Z,28.27
2023-02-26T14:49:49.608Z,15.30
2023-02-26T14:53:03.037Z,11.50
2023-02-26T14:55:46.925Z,3.07
2023-02-26T14:58:31.031Z,21.70
2023-02-26T15:01:19.394Z,13.47
2023-02-26T15:04:08.076Z,17.77
2023-02-26T15:06:51.021Z,7.43
2023-02-26T15:09:23.244Z,10.50
2023-02-26T15:12:04.258Z,17.80
2023-02-26T15:15:11.080Z,11.87
2023-02-26T15:17:59.187Z,9.47
2023-02-26T15:20:37.571Z,21.10
2023-02-26T15:23:30.045Z,7.57
2023-02-26T15:25:58.355Z,10.93
2023-02-26T15:28:30.091Z,7.17
2023-02-26T15:31:01.261Z,7.20
2023-02-26T15:33:30.866Z,16.00
2023-02-26T15:35:59.928Z,12.63
2023-02-26T15:38:28.639Z,9.33
2023-02-26T15:41:05.508Z,8.73
2023-02-26T15:43:33.745Z,11.60
2023-02-26T15:46:03.642Z,7.20
2023-02-26T15:48:38.350Z,3.57
2023-02-26T15:51:09.212Z,9.07
2023-02-26T15:53:41.687Z,5.57
2023-02-26T15:56:12.982Z,7.97
2023-02-26T15:58:45.031Z,3.60
2023-02-26T16:01:18.482Z,5.00
2023-02-26T16:03:48.607Z,5.43
2023-02-26T16:06:18.908Z,14.83
2023-02-26T16:08:46.962Z,10.57
2023-02-26T16:11:15.850Z,10.00
2023-02-26T16:13:45.614Z,8.80
2023-02-26T16:16:19.046Z,10.77
2023-02-26T16:18:49.206Z,28.33
2023-02-26T16:21:24.933Z,15.93
2023-02-26T16:23:55.584Z,21.90
2023-02-26T16:26:28.122Z,12.83
2023-02-26T16:29:01.746Z,22.27
2023-02-26T16:31:33.681Z,11.27
2023-02-26T16:34:06.282Z,29.83
2023-02-26T16:36:38.797Z,9.50
2023-02-26T16:39:18.395Z,9.90
2023-02-26T16:41:49.610Z,7.07
2023-02-26T16:44:42.252Z,7.87
2023-02-26T16:47:11.590Z,21.20
2023-02-26T16:49:43.558Z,18.00
2023-02-26T16:52:17.999Z,8.50
2023-02-26T16:54:55.246Z,10.70
2023-02-26T16:57:27.464Z,9.77
2023-02-26T16:59:59.357Z,7.03
2023-02-26T17:02:30.493Z,11.60
2023-02-26T17:05:03.972Z,7.57
2023-02-26T17:07:34.521Z,11.20
2023-02-26T17:10:09.591Z,10.73
2023-02-26T17:12:45.884Z,16.67
2023-02-26T17:15:20.890Z,17.60
2023-02-26T17:17:49.701Z,10.57
2023-02-26T17:20:19.453Z,14.10
2023-02-26T17:22:47.641Z,13.63
2023-02-26T17:25:17.629Z,17.17
2023-02-26T17:27:47.025Z,21.27
2023-02-26T17:30:18.231Z,16.73
2023-02-26T17:32:46.385Z,17.97
2023-02-26T17:35:15.157Z,13.27
2023-02-26T17:37:46.694Z,11.03
2023-02-26T17:40:22.074Z,7.23
2023-02-26T17:42:52.062Z,6.47
2023-02-26T17:45:21.212Z,19.17
2023-02-26T17:47:50.285Z,15.70
2023-02-26T17:50:30.100Z,10.70
2023-02-26T17:52:59.587Z,8.20
2023-02-26T17:55:27.668Z,3.47
2023-02-26T17:57:56.998Z,7.67
2023-02-26T18:00:25.666Z,8.70
2023-02-26T18:02:53.845Z,9.07
2023-02-26T18:05:21.921Z,8.80
2023-02-26T18:07:50.444Z,12.93
2023-02-26T18:10:24.843Z,7.57
2023-02-26T18:12:53.097Z,9.30
2023-02-26T18:15:21.420Z,10.33
2023-02-26T18:17:49.448Z,11.83
2023-02-26T18:20:20.586Z,8.97
2023-02-26T18:22:48.969Z,8.90
2023-02-26T18:25:17.308Z,6.63
2023-02-26T18:27:49.558Z,5.33
2023-02-26T18:30:29.647Z,5.83
2023-02-26T18:32:57.819Z,3.20
2023-02-26T18:35:27.533Z,5.73
2023-02-26T18:37:57.030Z,6.90
2023-02-26T18:40:28.232Z,3.57
2023-02-26T18:42:57.854Z,3.30
2023-02-26T18:45:25.917Z,6.70
2023-02-26T18:47:54.276Z,4.37
2023-02-26T18:50:22.483Z,5.87
2023-02-26T18:52:50.591Z,6.80
2023-02-26T18:55:18.661Z,5.70
2023-02-26T18:57:46.730Z,3.33
2023-02-26T19:00:17.019Z,2.60
2023-02-26T19:02:46.377Z,2.97
2023-02-26T19:05:16.389Z,5.00
2023-02-26T19:07:44.459Z,5.63
2023-02-26T19:10:15.093Z,4.30
2023-02-26T19:12:44.972Z,3.30
2023-02-26T19:15:15.324Z,4.30
2023-02-26T19:17:43.747Z,4.50
2023-02-26T19:20:13.565Z,12.10
2023-02-26T19:22:42.240Z,6.37
2023-02-26T19:25:11.296Z,9.77
2023-02-26T19:27:39.641Z,6.77
2023-02-26T19:30:09.143Z,6.10
2023-02-26T19:32:38.764Z,4.60
2023-02-26T19:35:07.899Z,11.17
2023-02-26T19:37:36.327Z,8.70
2023-02-26T19:40:09.807Z,5.60
2023-02-26T19:42:38.506Z,6.50
2023-02-26T19:45:07.305Z,12.73
2023-02-26T19:47:35.312Z,6.60
2023-02-26T19:50:05.761Z,6.13
2023-02-26T19:52:34.033Z,7.43
2023-02-26T19:55:02.567Z,5.33
2023-02-26T19:57:30.892Z,4.43
2023-02-26T20:00:00.009Z,3.50
2023-02-26T20:02:28.325Z,3.87
2023-02-26T20:04:56.435Z,5.90
2023-02-26T20:07:27.243Z,3.23
2023-02-26T20:09:55.289Z,3.23
2023-02-26T20:12:23.446Z,4.87
2023-02-26T20:14:51.747Z,3.77
2023-02-26T20:17:19.935Z,7.27
2023-02-26T20:19:48.405Z,5.60
2023-02-26T20:22:17.072Z,3.03
2023-02-26T20:24:46.614Z,4.10
2023-02-26T20:27:14.667Z,4.90
2023-02-26T20:29:42.770Z,4.00
2023-02-26T20:32:10.907Z,5.20
2023-02-26T20:34:39.348Z,4.37
2023-02-26T20:37:07.513Z,2.53
2023-02-26T20:39:36.028Z,4.03
2023-02-26T20:42:05.998Z,13.20
2023-02-26T20:44:34.341Z,18.80
2023-02-26T20:47:04.006Z,12.37
2023-02-26T20:49:32.657Z,6.27
2023-02-26T20:52:00.722Z,8.30
2023-02-26T20:54:28.816Z,5.87
2023-02-26T20:56:56.879Z,4.37
2023-02-26T20:59:26.526Z,3.97
2023-02-26T21:01:54.769Z,3.40
2023-02-26T21:04:22.805Z,3.20
2023-02-26T21:06:51.211Z,3.30
2023-02-26T21:09:19.244Z,3.10
2023-02-26T21:11:47.616Z,3.10
2023-02-26T21:14:15.796Z,4.23
2023-02-26T21:16:45.652Z,4.10
2023-02-26T21:19:13.795Z,2.37
2023-02-26T21:21:41.825Z,3.43
2023-02-26T21:24:10.124Z,2.83
2023-02-26T21:26:38.220Z,2.50
2023-02-26T21:29:06.358Z,2.93
2023-02-26T21:31:35.080Z,3.00
2023-02-26T21:34:30.014Z,3.57
2023-02-26T21:36:53.209Z,3.13
2023-02-26T21:39:21.356Z,4.47
2023-02-26T21:41:49.432Z,2.93
2023-02-26T21:44:17.492Z,5.47
2023-02-26T21:46:45.581Z,7.57
2023-02-26T21:49:15.082Z,5.23
2023-02-26T21:51:43.120Z,3.20
2023-02-26T21:54:11.277Z,5.20
2023-02-26T21:56:39.418Z,5.00
2023-02-26T21:59:07.681Z,4.37
2023-02-26T22:01:36.160Z,3.17
2023-02-26T22:04:04.396Z,7.00
2023-02-26T22:06:33.973Z,5.00
2023-02-26T22:09:02.064Z,3.23
2023-02-26T22:11:30.376Z,6.47
2023-02-26T22:13:58.774Z,3.53
2023-02-26T22:16:26.990Z,7.40
2023-02-26T22:18:55.524Z,3.50
2023-02-26T22:21:24.940Z,5.13
2023-02-26T22:23:54.552Z,4.00
2023-02-26T22:26:22.738Z,3.67
2023-02-26T22:28:51.219Z,3.40
2023-02-26T22:31:19.405Z,4.07
2023-02-26T22:33:47.566Z,4.43
2023-02-26T22:36:15.562Z,4.17
2023-02-26T22:38:43.636Z,4.77
2023-02-26T22:41:13.143Z,4.70
2023-02-26T22:43:41.169Z,4.63
2023-02-26T22:46:09.355Z,3.97
2023-02-26T22:48:37.319Z,3.70
2023-02-26T22:51:05.494Z,7.17
2023-02-26T22:53:33.566Z,3.63
2023-02-26T22:56:01.550Z,5.77
2023-02-26T22:58:31.162Z,4.97
2023-02-26T23:01:03.054Z,8.07
2023-02-26T23:03:31.206Z,3.63
2023-02-26T23:06:00.069Z,6.83
2023-02-26T23:08:28.603Z,3.63
2023-02-26T23:10:57.718Z,5.83
2023-02-26T23:13:27.217Z,6.23
2023-02-26T23:15:56.997Z,6.60
2023-02-26T23:18:25.049Z,5.53
2023-02-26T23:20:53.107Z,32.47
2023-02-26T23:23:21.198Z,50.60
2023-02-26T23:25:49.340Z,18.27
2023-02-26T23:28:17.404Z,13.40
2023-02-26T23:30:46.157Z,7.03
2023-02-26T23:33:16.045Z,8.03
2023-02-26T23:35:44.836Z,11.50
2023-02-26T23:38:12.890Z,11.40
2023-02-26T23:40:40.864Z,7.40
2023-02-26T23:43:08.885Z,11.90
2023-02-26T23:45:36.961Z,10.17
2023-02-26T23:48:05.614Z,10.93
2023-02-26T23:50:35.345Z,5.27
2023-02-26T23:53:03.373Z,7.17
2023-02-26T23:55:31.367Z,5.00
2023-02-26T23:57:59.442Z,7.17
